sensor_id;sensor_type;location;lat;lon;timestamp;pressure;altitude;pressure_sealevel;temperature;humidity
61039;BME280;46919;45.816;3.104;2023-04-02T00:02:29;97593.28;;;6.87;100.00
61039;BME280;46919;45.816;3.104;2023-04-02T00:07:49;97597.81;;;6.93;100.00
61039;BME280;46919;45.816;3.104;2023-04-02T00:10:28;97595.13;;;7.00;100.00
61039;BME280;46919;45.816;3.104;2023-04-02T00:15:43;97592.00;;;6.96;100.00
61039;BME280;46919;45.816;3.104;2023-04-02T00:18:15;97589.97;;;6.98;100.00
61039;BME280;46919;45.816;3.104;2023-04-02T00:20:46;97591.41;;;6.94;100.00
61039;BME280;46919;45.816;3.104;2023-04-02T00:23:13;97594.91;;;6.88;100.00
61039;BME280;46919;45.816;3.104;2023-04-02T00:25:41;97599.28;;;6.82;100.00
61039;BME280;46919;45.816;3.104;2023-04-02T00:28:13;97594.31;;;6.79;100.00
61039;BME280;46919;45.816;3.104;2023-04-02T00:30:48;97588.09;;;6.79;100.00
61039;BME280;46919;45.816;3.104;2023-04-02T00:33:17;97592.47;;;6.73;100.00
61039;BME280;46919;45.816;3.104;2023-04-02T00:35:43;97584.41;;;6.66;100.00
61039;BME280;46919;45.816;3.104;2023-04-02T00:38:35;97592.88;;;6.63;100.00
61039;BME280;46919;45.816;3.104;2023-04-02T00:41:02;97591.22;;;6.62;100.00
61039;BME280;46919;45.816;3.104;2023-04-02T00:43:32;97597.22;;;6.58;100.00
61039;BME280;46919;45.816;3.104;2023-04-02T00:46:03;97592.25;;;6.55;100.00
61039;BME280;46919;45.816;3.104;2023-04-02T00:51:23;97585.41;;;6.45;100.00
61039;BME280;46919;45.816;3.104;2023-04-02T00:53:52;97585.22;;;6.40;100.00
61039;BME280;46919;45.816;3.104;2023-04-02T00:56:23;97583.16;;;6.42;100.00
61039;BME280;46919;45.816;3.104;2023-04-02T00:58:52;97587.09;;;6.40;100.00
61039;BME280;46919;45.816;3.104;2023-04-02T01:01:25;97588.13;;;6.32;100.00
61039;BME280;46919;45.816;3.104;2023-04-02T01:03:58;97588.53;;;6.35;100.00
61039;BME280;46919;45.816;3.104;2023-04-02T01:06:29;97586.47;;;6.38;100.00
61039;BME280;46919;45.816;3.104;2023-04-02T01:23:04;97598.03;;;6.65;100.00
61039;BME280;46919;45.816;3.104;2023-04-02T01:25:46;97595.16;;;6.66;100.00
61039;BME280;46919;45.816;3.104;2023-04-02T01:28:25;97606.50;;;6.68;100.00
61039;BME280;46919;45.816;3.104;2023-04-02T01:30:55;97601.75;;;6.64;100.00
61039;BME280;46919;45.816;3.104;2023-04-02T01:33:24;97607.94;;;6.64;100.00
61039;BME280;46919;45.816;3.104;2023-04-02T01:35:56;97611.69;;;6.63;100.00
61039;BME280;46919;45.816;3.104;2023-04-02T01:38:33;97609.59;;;6.59;100.00
61039;BME280;46919;45.816;3.104;2023-04-02T01:41:22;97611.03;;;6.61;100.00
61039;BME280;46919;45.816;3.104;2023-04-02T01:45:03;97607.53;;;6.67;100.00
61039;BME280;46919;45.816;3.104;2023-04-02T01:47:02;97606.31;;;6.70;100.00
61039;BME280;46919;45.816;3.104;2023-04-02T01:49:32;97616.22;;;6.76;100.00
61039;BME280;46919;45.816;3.104;2023-04-02T01:51:58;97615.41;;;6.76;100.00
61039;BME280;46919;45.816;3.104;2023-04-02T01:54:24;97615.81;;;6.79;100.00
61039;BME280;46919;45.816;3.104;2023-04-02T01:56:53;97621.16;;;6.86;100.00
61039;BME280;46919;45.816;3.104;2023-04-02T01:59:22;97615.38;;;6.89;100.00
61039;BME280;46919;45.816;3.104;2023-04-02T02:01:57;97612.06;;;6.94;100.00
61039;BME280;46919;45.816;3.104;2023-04-02T02:04:25;97617.84;;;6.97;100.00
61039;BME280;46919;45.816;3.104;2023-04-02T02:06:51;97613.09;;;6.99;100.00
61039;BME280;46919;45.816;3.104;2023-04-02T02:09:21;97611.44;;;6.98;100.00
61039;BME280;46919;45.816;3.104;2023-04-02T02:11:49;97615.38;;;6.96;100.00
61039;BME280;46919;45.816;3.104;2023-04-02T02:14:17;97608.97;;;6.97;100.00
61039;BME280;46919;45.816;3.104;2023-04-02T02:16:45;97606.91;;;6.92;100.00
61039;BME280;46919;45.816;3.104;2023-04-02T02:19:21;97616.19;;;6.96;100.00
61039;BME280;46919;45.816;3.104;2023-04-02T02:21:51;97613.72;;;7.01;100.00
61039;BME280;46919;45.816;3.104;2023-04-02T02:24:29;97617.84;;;7.04;100.00
61039;BME280;46919;45.816;3.104;2023-04-02T02:29:50;97623.00;;;7.05;100.00
61039;BME280;46919;45.816;3.104;2023-04-02T02:32:19;97623.63;;;7.07;100.00
61039;BME280;46919;45.816;3.104;2023-04-02T02:35:05;97624.06;;;7.04;100.00
61039;BME280;46919;45.816;3.104;2023-04-02T02:37:39;97619.91;;;7.08;100.00
61039;BME280;46919;45.816;3.104;2023-04-02T02:40:12;97621.78;;;7.08;100.00
61039;BME280;46919;45.816;3.104;2023-04-02T02:42:48;97627.97;;;7.08;100.00
61039;BME280;46919;45.816;3.104;2023-04-02T02:45:18;97618.47;;;7.06;100.00
61039;BME280;46919;45.816;3.104;2023-04-02T02:47:47;97622.78;;;7.07;100.00
61039;BME280;46919;45.816;3.104;2023-04-02T02:50:20;97629.84;;;7.08;100.00
61039;BME280;46919;45.816;3.104;2023-04-02T02:52:52;97640.19;;;7.04;100.00
61039;BME280;46919;45.816;3.104;2023-04-02T02:55:21;97639.56;;;7.09;100.00
61039;BME280;46919;45.816;3.104;2023-04-02T02:58:01;97633.97;;;7.11;100.00
61039;BME280;46919;45.816;3.104;2023-04-02T03:00:29;97629.63;;;7.10;100.00
61039;BME280;46919;45.816;3.104;2023-04-02T03:02:55;97629.00;;;7.07;100.00
61039;BME280;46919;45.816;3.104;2023-04-02T03:05:24;97629.81;;;7.15;100.00
61039;BME280;46919;45.816;3.104;2023-04-02T03:07:52;97628.38;;;7.12;100.00
61039;BME280;46919;45.816;3.104;2023-04-02T03:10:33;97632.28;;;7.16;100.00
61039;BME280;46919;45.816;3.104;2023-04-02T03:18:50;97632.09;;;7.11;100.00
61039;BME280;46919;45.816;3.104;2023-04-02T03:21:38;97638.72;;;7.08;100.00
61039;BME280;46919;45.816;3.104;2023-04-02T03:24:21;97645.13;;;7.07;100.00
61039;BME280;46919;45.816;3.104;2023-04-02T03:26:57;97633.97;;;7.04;100.00
61039;BME280;46919;45.816;3.104;2023-04-02T03:29:28;97640.59;;;7.01;100.00
61039;BME280;46919;45.816;3.104;2023-04-02T03:32:18;97636.66;;;7.04;100.00
61039;BME280;46919;45.816;3.104;2023-04-02T03:34:56;97634.81;;;7.04;100.00
61039;BME280;46919;45.816;3.104;2023-04-02T03:37:38;97643.88;;;7.03;100.00
61039;BME280;46919;45.816;3.104;2023-04-02T03:42:46;97644.28;;;7.07;100.00
61039;BME280;46919;45.816;3.104;2023-04-02T03:48:14;97643.28;;;7.01;100.00
61039;BME280;46919;45.816;3.104;2023-04-02T03:53:13;97645.31;;;6.99;100.00
61039;BME280;46919;45.816;3.104;2023-04-02T03:55:40;97640.16;;;6.98;100.00
61039;BME280;46919;45.816;3.104;2023-04-02T03:58:32;97644.94;;;6.96;100.00
61039;BME280;46919;45.816;3.104;2023-04-02T04:01:07;97650.94;;;7.04;100.00
61039;BME280;46919;45.816;3.104;2023-04-02T04:03:47;97655.06;;;7.00;100.00
61039;BME280;46919;45.816;3.104;2023-04-02T04:06:24;97656.06;;;6.99;100.00
61039;BME280;46919;45.816;3.104;2023-04-02T04:08:53;97653.38;;;6.99;100.00
61039;BME280;46919;45.816;3.104;2023-04-02T04:11:25;97646.78;;;6.95;100.00
61039;BME280;46919;45.816;3.104;2023-04-02T04:16:40;97648.00;;;6.99;100.00
61039;BME280;46919;45.816;3.104;2023-04-02T04:22:14;97662.91;;;6.95;100.00
61039;BME280;46919;45.816;3.104;2023-04-02T04:24:39;97663.94;;;6.94;100.00
61039;BME280;46919;45.816;3.104;2023-04-02T04:27:37;97657.94;;;6.92;100.00
61039;BME280;46919;45.816;3.104;2023-04-02T04:30:38;97664.53;;;6.96;100.00
61039;BME280;46919;45.816;3.104;2023-04-02T04:33:24;97670.56;;;6.98;100.00
61039;BME280;46919;45.816;3.104;2023-04-02T04:35:54;97665.78;;;7.00;100.00
61039;BME280;46919;45.816;3.104;2023-04-02T04:38:29;97674.06;;;7.05;100.00
61039;BME280;46919;45.816;3.104;2023-04-02T04:41:03;97674.28;;;7.11;100.00
61039;BME280;46919;45.816;3.104;2023-04-02T04:46:05;97687.91;;;7.16;100.00
61039;BME280;46919;45.816;3.104;2023-04-02T04:48:36;97685.22;;;7.16;100.00
61039;BME280;46919;45.816;3.104;2023-04-02T04:51:16;97680.66;;;7.23;100.00
61039;BME280;46919;45.816;3.104;2023-04-02T04:53:49;97690.41;;;7.17;100.00
61039;BME280;46919;45.816;3.104;2023-04-02T04:56:22;97698.25;;;7.19;100.00
61039;BME280;46919;45.816;3.104;2023-04-02T05:01:58;97695.56;;;7.19;100.00
61039;BME280;46919;45.816;3.104;2023-04-02T05:09:42;97702.78;;;7.12;100.00
61039;BME280;46919;45.816;3.104;2023-04-02T05:20:15;97712.72;;;7.11;100.00
61039;BME280;46919;45.816;3.104;2023-04-02T05:23:01;97724.94;;;7.14;100.00
61039;BME280;46919;45.816;3.104;2023-04-02T05:25:30;97727.63;;;7.14;100.00
61039;BME280;46919;45.816;3.104;2023-04-02T05:28:12;97725.75;;;7.07;100.00
61039;BME280;46919;45.816;3.104;2023-04-02T05:30:53;97736.09;;;7.11;100.00
61039;BME280;46919;45.816;3.104;2023-04-02T05:33:28;97741.88;;;7.07;100.00
61039;BME280;46919;45.816;3.104;2023-04-02T05:36:26;97739.59;;;7.04;100.00
61039;BME280;46919;45.816;3.104;2023-04-02T05:38:54;97739.38;;;6.99;100.00
61039;BME280;46919;45.816;3.104;2023-04-02T05:41:29;97737.53;;;7.00;100.00
61039;BME280;46919;45.816;3.104;2023-04-02T05:44:09;97744.34;;;7.02;100.00
61039;BME280;46919;45.816;3.104;2023-04-02T05:46:44;97746.81;;;6.97;100.00
61039;BME280;46919;45.816;3.104;2023-04-02T05:49:25;97745.78;;;6.98;100.00
61039;BME280;46919;45.816;3.104;2023-04-02T05:51:54;97756.75;;;7.03;100.00
61039;BME280;46919;45.816;3.104;2023-04-02T05:54:25;97759.63;;;7.02;100.00
61039;BME280;46919;45.816;3.104;2023-04-02T05:57:02;97764.19;;;7.01;100.00
61039;BME280;46919;45.816;3.104;2023-04-02T05:59:32;97762.53;;;7.00;100.00
61039;BME280;46919;45.816;3.104;2023-04-02T06:02:06;97766.25;;;6.99;100.00
61039;BME280;46919;45.816;3.104;2023-04-02T06:04:47;97765.00;;;7.02;100.00
61039;BME280;46919;45.816;3.104;2023-04-02T06:07:19;97765.84;;;7.02;100.00
61039;BME280;46919;45.816;3.104;2023-04-02T06:15:22;97781.97;;;7.16;100.00
61039;BME280;46919;45.816;3.104;2023-04-02T06:20:22;97785.72;;;7.28;100.00
61039;BME280;46919;45.816;3.104;2023-04-02T06:22:51;97789.84;;;7.31;100.00
61039;BME280;46919;45.816;3.104;2023-04-02T06:25:35;97793.56;;;7.36;100.00
61039;BME280;46919;45.816;3.104;2023-04-02T06:28:05;97795.44;;;7.42;100.00
61039;BME280;46919;45.816;3.104;2023-04-02T06:30:38;97793.97;;;7.47;100.00
61039;BME280;46919;45.816;3.104;2023-04-02T06:33:05;97793.16;;;7.53;100.00
61039;BME280;46919;45.816;3.104;2023-04-02T06:35:34;97790.66;;;7.58;100.00
61039;BME280;46919;45.816;3.104;2023-04-02T06:38:03;97793.16;;;7.66;100.00
61039;BME280;46919;45.816;3.104;2023-04-02T06:40:40;97796.44;;;7.75;100.00
61039;BME280;46919;45.816;3.104;2023-04-02T06:43:23;97800.78;;;7.83;100.00
61039;BME280;46919;45.816;3.104;2023-04-02T06:45:52;97803.25;;;7.91;100.00
61039;BME280;46919;45.816;3.104;2023-04-02T06:48:19;97805.53;;;7.94;100.00
61039;BME280;46919;45.816;3.104;2023-04-02T06:53:34;97815.84;;;8.04;100.00
61039;BME280;46919;45.816;3.104;2023-04-02T06:56:13;97817.31;;;8.06;100.00
61039;BME280;46919;45.816;3.104;2023-04-02T06:58:42;97826.19;;;8.07;100.00
61039;BME280;46919;45.816;3.104;2023-04-02T07:01:15;97823.50;;;8.07;100.00
61039;BME280;46919;45.816;3.104;2023-04-02T07:03:42;97828.69;;;8.08;100.00
61039;BME280;46919;45.816;3.104;2023-04-02T07:06:16;97826.16;;;8.13;100.00
61039;BME280;46919;45.816;3.104;2023-04-02T07:08:42;97837.16;;;8.19;99.81
61039;BME280;46919;45.816;3.104;2023-04-02T07:11:13;97837.75;;;8.21;98.83
61039;BME280;46919;45.816;3.104;2023-04-02T07:13:38;97825.97;;;8.22;97.28
61039;BME280;46919;45.816;3.104;2023-04-02T07:16:04;97833.41;;;8.26;96.92
61039;BME280;46919;45.816;3.104;2023-04-02T07:18:32;97838.13;;;8.31;96.15
61039;BME280;46919;45.816;3.104;2023-04-02T07:20:58;97836.94;;;8.27;96.34
61039;BME280;46919;45.816;3.104;2023-04-02T07:23:24;97840.44;;;8.27;96.65
61039;BME280;46919;45.816;3.104;2023-04-02T07:25:54;97840.22;;;8.29;96.64
61039;BME280;46919;45.816;3.104;2023-04-02T07:28:21;97842.50;;;8.32;96.75
61039;BME280;46919;45.816;3.104;2023-04-02T07:30:47;97845.38;;;8.37;96.33
61039;BME280;46919;45.816;3.104;2023-04-02T07:33:18;97847.25;;;8.43;96.46
61039;BME280;46919;45.816;3.104;2023-04-02T07:35:44;97852.81;;;8.48;96.60
61039;BME280;46919;45.816;3.104;2023-04-02T07:38:09;97860.28;;;8.53;96.70
61039;BME280;46919;45.816;3.104;2023-04-02T07:40:35;97855.72;;;8.54;96.40
61039;BME280;46919;45.816;3.104;2023-04-02T07:43:01;97863.78;;;8.60;96.92
61039;BME280;46919;45.816;3.104;2023-04-02T07:45:27;97859.22;;;8.61;96.31
61039;BME280;46919;45.816;3.104;2023-04-02T07:47:53;97865.84;;;8.65;96.98
61039;BME280;46919;45.816;3.104;2023-04-02T07:50:18;97872.44;;;8.69;96.46
61039;BME280;46919;45.816;3.104;2023-04-02T07:52:44;97867.25;;;8.74;95.90
61039;BME280;46919;45.816;3.104;2023-04-02T07:55:11;97862.47;;;8.76;95.04
61039;BME280;46919;45.816;3.104;2023-04-02T07:57:52;97866.63;;;8.72;93.54
61039;BME280;46919;45.816;3.104;2023-04-02T08:00:18;97868.53;;;8.65;92.87
61039;BME280;46919;45.816;3.104;2023-04-02T08:02:45;97861.69;;;8.62;91.33
61039;BME280;46919;45.816;3.104;2023-04-02T08:05:11;97872.25;;;8.64;89.76
61039;BME280;46919;45.816;3.104;2023-04-02T08:07:37;97870.38;;;8.71;88.64
61039;BME280;46919;45.816;3.104;2023-04-02T08:10:07;97871.91;;;8.99;88.75
61039;BME280;46919;45.816;3.104;2023-04-02T08:12:33;97877.53;;;9.29;88.10
61039;BME280;46919;45.816;3.104;2023-04-02T08:14:59;97866.38;;;9.25;86.53
61039;BME280;46919;45.816;3.104;2023-04-02T08:17:25;97872.41;;;9.21;86.00
61039;BME280;46919;45.816;3.104;2023-04-02T08:19:58;97873.69;;;9.18;86.59
61039;BME280;46919;45.816;3.104;2023-04-02T08:22:27;97883.03;;;9.16;87.16
61039;BME280;46919;45.816;3.104;2023-04-02T08:24:52;97885.69;;;9.22;88.18
61039;BME280;46919;45.816;3.104;2023-04-02T08:27:18;97894.84;;;9.15;87.59
61039;BME280;46919;45.816;3.104;2023-04-02T08:29:43;97887.22;;;9.05;87.84
61039;BME280;46919;45.816;3.104;2023-04-02T08:32:11;97905.53;;;8.96;87.84
61039;BME280;46919;45.816;3.104;2023-04-02T08:34:36;97898.22;;;9.03;88.89
61039;BME280;46919;45.816;3.104;2023-04-02T08:37:02;97905.25;;;9.11;89.29
61039;BME280;46919;45.816;3.104;2023-04-02T08:39:27;97910.88;;;9.03;88.20
61039;BME280;46919;45.816;3.104;2023-04-02T08:47:23;97918.47;;;8.74;87.45
61039;BME280;46919;45.816;3.104;2023-04-02T08:49:58;97918.03;;;8.70;87.79
61039;BME280;46919;45.816;3.104;2023-04-02T08:52:32;97929.25;;;8.74;87.51
61039;BME280;46919;45.816;3.104;2023-04-02T08:55:03;97931.50;;;8.70;87.44
61039;BME280;46919;45.816;3.104;2023-04-02T08:57:46;97939.34;;;8.85;87.25
61039;BME280;46919;45.816;3.104;2023-04-02T09:00:40;97932.88;;;9.00;85.72
61039;BME280;46919;45.816;3.104;2023-04-02T09:03:29;97941.53;;;9.09;86.72
61039;BME280;46919;45.816;3.104;2023-04-02T09:05:52;97940.94;;;9.06;86.31
61039;BME280;46919;45.816;3.104;2023-04-02T09:08:23;97941.59;;;8.95;85.10
61039;BME280;46919;45.816;3.104;2023-04-02T09:13:26;97943.09;;;8.84;86.82
61039;BME280;46919;45.816;3.104;2023-04-02T09:16:02;97956.56;;;8.84;85.91
61039;BME280;46919;45.816;3.104;2023-04-02T09:18:31;97959.94;;;8.66;86.09
61039;BME280;46919;45.816;3.104;2023-04-02T09:20:57;97963.47;;;8.54;86.56
61039;BME280;46919;45.816;3.104;2023-04-02T09:23:24;97963.25;;;8.42;87.46
61039;BME280;46919;45.816;3.104;2023-04-02T09:25:52;97962.44;;;8.41;87.82
61039;BME280;46919;45.816;3.104;2023-04-02T09:28:18;97965.13;;;8.48;87.93
61039;BME280;46919;45.816;3.104;2023-04-02T09:31:26;97960.72;;;8.80;87.72
61039;BME280;46919;45.816;3.104;2023-04-02T09:33:54;97959.59;;;9.08;87.26
61039;BME280;46919;45.816;3.104;2023-04-02T09:36:33;97959.31;;;9.23;86.15
61039;BME280;46919;45.816;3.104;2023-04-02T09:39:04;97965.03;;;9.40;85.42
61039;BME280;46919;45.816;3.104;2023-04-02T09:41:33;97951.50;;;9.53;84.14
61039;BME280;46919;45.816;3.104;2023-04-02T09:44:25;97957.03;;;9.65;80.82
61039;BME280;46919;45.816;3.104;2023-04-02T09:46:53;97965.72;;;9.67;80.99
61039;BME280;46919;45.816;3.104;2023-04-02T09:49:22;97967.75;;;9.72;79.90
61039;BME280;46919;45.816;3.104;2023-04-02T09:52:27;97957.66;;;9.92;76.67
61039;BME280;46919;45.816;3.104;2023-04-02T10:01:00;97961.66;;;9.83;77.99
61039;BME280;46919;45.816;3.104;2023-04-02T10:03:27;97960.03;;;9.82;75.84
61039;BME280;46919;45.816;3.104;2023-04-02T10:06:14;97960.69;;;9.77;76.40
61039;BME280;46919;45.816;3.104;2023-04-02T10:08:42;97966.94;;;9.71;76.99
61039;BME280;46919;45.816;3.104;2023-04-02T10:11:12;97962.59;;;9.70;77.05
61039;BME280;46919;45.816;3.104;2023-04-02T10:13:59;97965.13;;;9.65;75.18
61039;BME280;46919;45.816;3.104;2023-04-02T10:19:01;97971.69;;;9.44;75.80
61039;BME280;46919;45.816;3.104;2023-04-02T10:21:35;97978.69;;;9.45;76.16
61039;BME280;46919;45.816;3.104;2023-04-02T10:24:02;97985.72;;;9.53;75.91
61039;BME280;46919;45.816;3.104;2023-04-02T10:29:34;97980.75;;;9.56;74.03
61039;BME280;46919;45.816;3.104;2023-04-02T10:40:34;97985.09;;;9.57;76.19
61039;BME280;46919;45.816;3.104;2023-04-02T10:45:53;97994.38;;;9.68;75.95
61039;BME280;46919;45.816;3.104;2023-04-02T10:57:05;97985.34;;;9.49;77.73
61039;BME280;46919;45.816;3.104;2023-04-02T10:59:41;97993.19;;;9.57;78.30
61039;BME280;46919;45.816;3.104;2023-04-02T11:02:30;97994.19;;;9.63;78.43
61039;BME280;46919;45.816;3.104;2023-04-02T11:05:00;97995.91;;;9.51;78.96
61039;BME280;46919;45.816;3.104;2023-04-02T11:07:30;98010.03;;;9.46;81.48
61039;BME280;46919;45.816;3.104;2023-04-02T11:09:59;98001.78;;;9.41;82.97
61039;BME280;46919;45.816;3.104;2023-04-02T11:12:47;98001.38;;;9.31;84.84
61039;BME280;46919;45.816;3.104;2023-04-02T11:15:17;98002.88;;;9.27;86.65
61039;BME280;46919;45.816;3.104;2023-04-02T11:17:44;98015.28;;;9.28;87.05
61039;BME280;46919;45.816;3.104;2023-04-02T11:20:47;98006.25;;;9.15;85.72
61039;BME280;46919;45.816;3.104;2023-04-02T11:23:19;98021.34;;;9.16;85.82
61039;BME280;46919;45.816;3.104;2023-04-02T11:25:45;98011.63;;;9.09;84.66
61039;BME280;46919;45.816;3.104;2023-04-02T11:28:28;98010.03;;;9.01;85.16
61039;BME280;46919;45.816;3.104;2023-04-02T11:30:55;98004.19;;;9.04;85.26
61039;BME280;46919;45.816;3.104;2023-04-02T11:33:36;98015.38;;;9.07;84.65
61039;BME280;46919;45.816;3.104;2023-04-02T11:36:08;98009.34;;;9.05;84.77
61039;BME280;46919;45.816;3.104;2023-04-02T11:38:50;98011.63;;;9.09;84.33
61039;BME280;46919;45.816;3.104;2023-04-02T11:42:02;98013.28;;;9.10;83.51
61039;BME280;46919;45.816;3.104;2023-04-02T11:44:28;98019.72;;;9.15;83.59
61039;BME280;46919;45.816;3.104;2023-04-02T11:47:25;98024.28;;;9.21;83.17
61039;BME280;46919;45.816;3.104;2023-04-02T11:53:42;98025.66;;;9.31;82.71
61039;BME280;46919;45.816;3.104;2023-04-02T11:55:44;98023.22;;;9.22;81.78
61039;BME280;46919;45.816;3.104;2023-04-02T11:58:23;98030.06;;;9.25;81.21
61039;BME280;46919;45.816;3.104;2023-04-02T12:06:17;98028.59;;;9.22;80.17
61039;BME280;46919;45.816;3.104;2023-04-02T12:08:48;98024.84;;;9.30;80.10
61039;BME280;46919;45.816;3.104;2023-04-02T12:11:31;98029.38;;;9.36;79.48
61039;BME280;46919;45.816;3.104;2023-04-02T12:13:59;98039.94;;;9.45;79.74
61039;BME280;46919;45.816;3.104;2023-04-02T12:16:26;98039.72;;;9.46;79.75
61039;BME280;46919;45.816;3.104;2023-04-02T12:18:57;98037.19;;;9.51;79.48
61039;BME280;46919;45.816;3.104;2023-04-02T12:21:25;98044.47;;;9.51;79.17
61039;BME280;46919;45.816;3.104;2023-04-02T12:23:54;98056.13;;;9.45;78.36
61039;BME280;46919;45.816;3.104;2023-04-02T12:28:48;98060.88;;;9.49;78.24
61039;BME280;46919;45.816;3.104;2023-04-02T12:31:15;98049.22;;;9.55;79.00
61039;BME280;46919;45.816;3.104;2023-04-02T12:33:44;98049.63;;;9.59;79.31
61039;BME280;46919;45.816;3.104;2023-04-02T12:38:55;98049.47;;;9.47;79.06
61039;BME280;46919;45.816;3.104;2023-04-02T12:41:26;98046.72;;;9.60;79.33
61039;BME280;46919;45.816;3.104;2023-04-02T12:46:23;98049.84;;;9.57;79.86
61039;BME280;46919;45.816;3.104;2023-04-02T12:48:51;98049.84;;;9.57;80.15
61039;BME280;46919;45.816;3.104;2023-04-02T12:51:17;98052.97;;;9.54;79.78
61039;BME280;46919;45.816;3.104;2023-04-02T12:53:48;98052.53;;;9.57;80.00
61039;BME280;46919;45.816;3.104;2023-04-02T12:56:19;98050.88;;;9.63;79.88
61039;BME280;46919;45.816;3.104;2023-04-02T12:58:59;98047.91;;;9.71;79.60
61039;BME280;46919;45.816;3.104;2023-04-02T13:01:30;98047.31;;;9.63;78.50
61039;BME280;46919;45.816;3.104;2023-04-02T13:04:07;98054.78;;;9.67;79.57
61039;BME280;46919;45.816;3.104;2023-04-02T13:06:34;98052.50;;;9.71;80.38
61039;BME280;46919;45.816;3.104;2023-04-02T13:09:02;98050.22;;;9.61;79.92
61039;BME280;46919;45.816;3.104;2023-04-02T13:11:36;98049.63;;;9.59;79.80
61039;BME280;46919;45.816;3.104;2023-04-02T13:14:04;98054.63;;;9.55;79.68
61039;BME280;46919;45.816;3.104;2023-04-02T13:16:36;98054.00;;;9.60;79.56
61039;BME280;46919;45.816;3.104;2023-04-02T13:19:29;98057.91;;;9.64;79.56
61039;BME280;46919;45.816;3.104;2023-04-02T13:21:56;98050.91;;;9.56;78.12
61039;BME280;46919;45.816;3.104;2023-04-02T13:24:24;98061.28;;;9.53;78.34
61039;BME280;46919;45.816;3.104;2023-04-02T13:26:55;98068.53;;;9.52;78.61
61039;BME280;46919;45.816;3.104;2023-04-02T13:29:31;98063.38;;;9.51;78.83
61039;BME280;46919;45.816;3.104;2023-04-02T13:32:02;98061.69;;;9.50;78.60
61039;BME280;46919;45.816;3.104;2023-04-02T13:34:28;98067.72;;;9.45;78.89
61039;BME280;46919;45.816;3.104;2023-04-02T13:36:54;98072.69;;;9.48;79.11
61039;BME280;46919;45.816;3.104;2023-04-02T13:39:20;98071.31;;;9.39;78.46
61039;BME280;46919;45.816;3.104;2023-04-02T13:41:54;98066.13;;;9.37;78.94
61039;BME280;46919;45.816;3.104;2023-04-02T13:44:24;98065.66;;;9.47;78.27
61039;BME280;46919;45.816;3.104;2023-04-02T13:46:51;98063.31;;;9.57;78.01
61039;BME280;46919;45.816;3.104;2023-04-02T13:49:17;98063.28;;;9.71;78.06
61039;BME280;46919;45.816;3.104;2023-04-02T13:51:46;98065.34;;;9.75;76.79
61039;BME280;46919;45.816;3.104;2023-04-02T13:54:41;98068.28;;;9.60;78.04
61039;BME280;46919;45.816;3.104;2023-04-02T13:57:08;98065.22;;;9.57;77.78
61039;BME280;46919;45.816;3.104;2023-04-02T13:59:34;98065.84;;;9.52;78.47
61039;BME280;46919;45.816;3.104;2023-04-02T14:02:09;98070.03;;;9.41;78.24
61039;BME280;46919;45.816;3.104;2023-04-02T14:04:41;98068.41;;;9.34;78.52
61039;BME280;46919;45.816;3.104;2023-04-02T14:10:03;98074.88;;;9.19;80.19
61039;BME280;46919;45.816;3.104;2023-04-02T14:12:54;98083.59;;;9.21;81.13
61039;BME280;46919;45.816;3.104;2023-04-02T14:29:15;98090.91;;;9.01;86.92
61039;BME280;46919;45.816;3.104;2023-04-02T14:31:52;98094.59;;;9.06;86.63
61039;BME280;46919;45.816;3.104;2023-04-02T14:40:18;98096.66;;;9.18;84.98
61039;BME280;46919;45.816;3.104;2023-04-02T14:42:52;98099.56;;;9.16;83.97
61039;BME280;46919;45.816;3.104;2023-04-02T14:51:23;98097.31;;;9.00;83.95
61039;BME280;46919;45.816;3.104;2023-04-02T14:54:08;98105.41;;;9.00;84.25
61039;BME280;46919;45.816;3.104;2023-04-02T14:56:44;98098.31;;;9.05;84.34
61039;BME280;46919;45.816;3.104;2023-04-02T15:02:00;98099.19;;;8.99;84.79
61039;BME280;46919;45.816;3.104;2023-04-02T15:04:36;98092.97;;;8.92;85.38
61039;BME280;46919;45.816;3.104;2023-04-02T15:07:16;98109.97;;;8.99;85.98
61039;BME280;46919;45.816;3.104;2023-04-02T15:10:13;98102.09;;;8.98;86.34
61039;BME280;46919;45.816;3.104;2023-04-02T15:12:36;98106.44;;;8.92;86.42
61039;BME280;46919;45.816;3.104;2023-04-02T15:15:19;98101.69;;;8.87;86.63
61039;BME280;46919;45.816;3.104;2023-04-02T15:17:46;98103.31;;;8.95;87.02
61039;BME280;46919;45.816;3.104;2023-04-02T15:20:16;98104.59;;;8.99;85.87
61039;BME280;46919;45.816;3.104;2023-04-02T15:25:41;98106.63;;;9.11;86.14
61039;BME280;46919;45.816;3.104;2023-04-02T15:30:42;98110.16;;;9.11;86.19
61039;BME280;46919;45.816;3.104;2023-04-02T15:35:53;98109.72;;;9.21;86.75
61039;BME280;46919;45.816;3.104;2023-04-02T15:38:24;98106.19;;;9.27;86.40
61039;BME280;46919;45.816;3.104;2023-04-02T15:41:29;98122.16;;;9.29;86.01
61039;BME280;46919;45.816;3.104;2023-04-02T15:44:05;98116.59;;;9.17;86.71
61039;BME280;46919;45.816;3.104;2023-04-02T15:49:42;98112.44;;;9.14;86.97
61039;BME280;46919;45.816;3.104;2023-04-02T15:52:24;98116.56;;;9.10;87.36
61039;BME280;46919;45.816;3.104;2023-04-02T15:55:03;98115.34;;;9.06;88.31
61039;BME280;46919;45.816;3.104;2023-04-02T16:00:25;98122.00;;;8.97;89.84
61039;BME280;46919;45.816;3.104;2023-04-02T16:03:15;98123.66;;;8.84;91.21
61039;BME280;46919;45.816;3.104;2023-04-02T16:06:11;98135.25;;;8.72;92.35
61039;BME280;46919;45.816;3.104;2023-04-02T16:11:29;98139.81;;;8.44;94.98
61039;BME280;46919;45.816;3.104;2023-04-02T16:14:09;98141.00;;;8.35;95.54
61039;BME280;46919;45.816;3.104;2023-04-02T16:16:39;98137.25;;;8.29;96.59
61039;BME280;46919;45.816;3.104;2023-04-02T16:19:20;98141.19;;;8.27;97.48
61039;BME280;46919;45.816;3.104;2023-04-02T16:21:57;98143.88;;;8.27;99.01
61039;BME280;46919;45.816;3.104;2023-04-02T16:24:25;98150.28;;;8.26;99.05
61039;BME280;46919;45.816;3.104;2023-04-02T16:27:12;98146.16;;;8.23;99.03
61039;BME280;46919;45.816;3.104;2023-04-02T16:32:31;98154.84;;;8.25;99.19
61039;BME280;46919;45.816;3.104;2023-04-02T16:37:48;98161.25;;;8.18;99.97
61039;BME280;46919;45.816;3.104;2023-04-02T16:46:30;98160.84;;;8.21;99.17
61039;BME280;46919;45.816;3.104;2023-04-02T16:57:23;98180.28;;;8.16;99.91
61039;BME280;46919;45.816;3.104;2023-04-02T17:03:35;98182.56;;;8.06;100.00